createdAt,value
2022-09-06T00:04:54.128Z,7.9
2022-09-06T00:09:55.029Z,7.9
2022-09-06T00:14:55.833Z,6.8
2022-09-06T00:19:57.241Z,7.7
2022-09-06T00:24:57.512Z,7.6
2022-09-06T00:29:58.525Z,7.9
2022-09-06T00:34:59.373Z,7.2
2022-09-06T00:40:00.181Z,7.3
2022-09-06T00:45:01.132Z,7.1
2022-09-06T00:50:01.891Z,7.7
2022-09-06T00:55:02.832Z,7.7
2022-09-06T01:00:04.070Z,6.8
2022-09-06T01:05:04.566Z,7.4
2022-09-06T01:10:05.576Z,7.1
2022-09-06T01:15:06.522Z,6.7
2022-09-06T01:20:07.111Z,6.7
2022-09-06T01:25:08.128Z,7.2
2022-09-06T01:30:09.000Z,6.5
2022-09-06T01:35:09.753Z,6.5
2022-09-06T01:40:10.731Z,7.2
2022-09-06T01:45:11.694Z,6.3
2022-09-06T01:50:12.691Z,6.4
2022-09-06T01:55:13.497Z,6.3
2022-09-06T02:00:14.319Z,6.3
2022-09-06T02:05:15.021Z,6.8
2022-09-06T02:10:16.037Z,6.0
2022-09-06T02:15:16.996Z,6.1
2022-09-06T02:20:18.265Z,6.0
2022-09-06T02:25:18.580Z,6.8
2022-09-06T02:30:19.688Z,6.4
2022-09-06T02:35:20.397Z,6.1
2022-09-06T02:40:21.282Z,7.4
2022-09-06T02:45:22.266Z,5.8
2022-09-06T02:50:22.966Z,6.6
2022-09-06T02:55:27.560Z,5.9
2022-09-06T03:00:24.747Z,5.7
2022-09-06T03:05:27.492Z,5.7
2022-09-06T03:10:26.395Z,6.3
2022-09-06T03:15:27.666Z,6.2
2022-09-06T03:20:28.140Z,5.8
2022-09-06T03:25:29.286Z,6.0
2022-09-06T03:30:30.075Z,6.0
2022-09-06T03:35:30.881Z,5.4
2022-09-06T03:40:31.602Z,5.7
2022-09-06T03:45:32.403Z,5.8
2022-09-06T03:50:33.101Z,5.7
2022-09-06T03:55:34.006Z,5.8
2022-09-06T04:00:34.870Z,5.4
2022-09-06T04:05:35.619Z,5.7
2022-09-06T04:10:36.471Z,5.2
2022-09-06T04:15:37.725Z,5.4
2022-09-06T04:20:38.052Z,5.4
2022-09-06T04:25:39.172Z,5.3
2022-09-06T04:30:40.038Z,5.0
2022-09-06T04:35:40.573Z,5.7
2022-09-06T04:40:41.572Z,5.2
2022-09-06T04:45:42.392Z,6.0
2022-09-06T04:50:43.002Z,4.9
2022-09-06T04:55:43.883Z,5.6
2022-09-06T05:00:45.099Z,5.1
2022-09-06T05:05:45.450Z,5.7
2022-09-06T05:10:46.562Z,5.4
2022-09-06T05:15:47.226Z,5.7
2022-09-06T05:20:49.048Z,5.2
2022-09-06T05:25:48.914Z,7.0
2022-09-06T05:30:49.822Z,5.8
2022-09-06T05:35:50.557Z,5.5
2022-09-06T05:40:51.342Z,6.1
2022-09-06T05:45:52.194Z,6.4
2022-09-06T05:50:53.128Z,6.1
2022-09-06T05:55:53.751Z,6.2
2022-09-06T06:00:54.697Z,6.2
2022-09-06T06:05:55.550Z,6.5
2022-09-06T06:10:56.131Z,5.9
2022-09-06T06:15:57.023Z,6.2
2022-09-06T06:20:57.947Z,6.4
2022-09-06T06:25:58.660Z,5.6
2022-09-06T06:30:59.590Z,5.9
2022-09-06T06:36:00.177Z,6.1
2022-09-06T06:41:05.816Z,5.9
2022-09-06T06:46:01.975Z,5.5
2022-09-06T06:51:02.669Z,5.3
2022-09-06T06:56:03.614Z,5.7
2022-09-06T07:01:04.625Z,5.5
2022-09-06T07:06:12.912Z,5.9
2022-09-06T07:11:05.931Z,5.7
2022-09-06T07:16:07.469Z,5.7
2022-09-06T07:21:38.117Z,5.3
2022-09-06T07:26:08.555Z,5.5
2022-09-06T07:36:10.122Z,5.8
2022-09-06T07:41:11.104Z,6.0
2022-09-06T07:46:12.118Z,5.3
2022-09-06T07:51:12.629Z,5.7
2022-09-06T07:56:13.513Z,6.0
2022-09-06T08:01:14.314Z,6.6
2022-09-06T08:06:14.978Z,6.1
2022-09-06T08:11:15.888Z,6.3
2022-09-06T08:16:17.188Z,5.9
2022-09-06T08:21:18.568Z,6.3
2022-09-06T08:26:18.350Z,6.5
2022-09-06T08:31:19.381Z,6.6
2022-09-06T08:36:19.973Z,6.6
2022-09-06T08:41:20.809Z,6.6
2022-09-06T08:46:21.918Z,6.9
2022-09-06T08:51:22.446Z,6.5
2022-09-06T08:56:23.124Z,5.7
2022-09-06T09:01:24.107Z,6.2
2022-09-06T09:06:24.926Z,6.3
2022-09-06T09:11:25.719Z,6.3
2022-09-06T09:16:26.708Z,5.9
2022-09-06T09:21:30.675Z,6.0
2022-09-06T09:26:28.230Z,6.1
2022-09-06T09:31:29.196Z,5.3
2022-09-06T09:36:30.057Z,5.4
2022-09-06T09:41:30.871Z,4.2
2022-09-06T09:46:31.815Z,4.7
2022-09-06T09:51:32.598Z,4.8
2022-09-06T09:56:33.412Z,4.2
2022-09-06T10:01:34.200Z,3.8
2022-09-06T10:11:36.170Z,3.6
2022-09-06T10:16:36.832Z,3.5
2022-09-06T10:21:37.766Z,3.1
2022-09-06T10:26:38.387Z,3.4
2022-09-06T10:31:39.373Z,3.2
2022-09-06T10:36:39.991Z,3.3
2022-09-06T10:41:40.951Z,2.8
2022-09-06T10:46:41.829Z,3.1
2022-09-06T10:51:42.643Z,2.8
2022-09-06T10:56:43.434Z,2.7
2022-09-06T11:01:44.518Z,2.9
2022-09-06T11:06:45.053Z,2.8
2022-09-06T11:11:45.973Z,2.4
2022-09-06T11:16:47.059Z,2.6
2022-09-06T11:21:48.184Z,2.2
2022-09-06T11:26:48.684Z,2.4
2022-09-06T11:32:17.014Z,2.2
2022-09-06T11:36:50.327Z,2.0
2022-09-06T11:41:51.044Z,2.1
2022-09-06T11:46:52.640Z,2.1
2022-09-06T11:51:52.816Z,2.0
2022-09-06T11:56:53.907Z,1.9
2022-09-06T12:01:54.571Z,2.1
2022-09-06T12:06:55.421Z,1.9
2022-09-06T12:11:56.251Z,2.0
2022-09-06T12:16:57.166Z,1.9
2022-09-06T12:21:58.665Z,1.9
2022-09-06T12:26:58.768Z,1.8
2022-09-06T12:31:59.733Z,2.2
2022-09-06T12:37:00.576Z,1.7
2022-09-06T12:42:01.612Z,1.9
2022-09-06T12:47:02.508Z,2.2
2022-09-06T12:52:03.088Z,2.1
2022-09-06T12:57:04.064Z,2.6
2022-09-06T13:02:05.182Z,2.2
2022-09-06T13:07:05.862Z,2.1
2022-09-06T13:12:06.677Z,2.5
2022-09-06T13:17:07.636Z,2.3
2022-09-06T13:22:08.851Z,2.4
2022-09-06T13:27:09.317Z,2.5
2022-09-06T13:32:10.431Z,3.0
2022-09-06T13:37:11.237Z,3.0
2022-09-06T13:42:12.013Z,3.6
2022-09-06T13:47:13.332Z,3.5
2022-09-06T13:52:13.820Z,4.0
2022-09-06T13:57:14.792Z,4.1
2022-09-06T14:02:15.724Z,4.3
2022-09-06T14:07:16.602Z,4.1
2022-09-06T14:12:17.380Z,4.7
2022-09-06T14:17:18.416Z,4.9
2022-09-06T14:22:19.298Z,4.9
2022-09-06T14:27:20.066Z,4.8
2022-09-06T14:32:22.698Z,4.8
2022-09-06T14:37:21.990Z,4.4
2022-09-06T14:42:22.964Z,4.4
2022-09-06T14:47:24.246Z,3.1
2022-09-06T14:52:24.799Z,3.2
2022-09-06T14:57:25.675Z,3.4
2022-09-06T15:02:26.711Z,4.1
2022-09-06T15:07:27.368Z,3.4
2022-09-06T15:12:28.170Z,3.4
2022-09-06T15:17:29.253Z,4.2
2022-09-06T15:22:30.349Z,3.3
2022-09-06T15:27:30.761Z,2.8
2022-09-06T15:32:31.849Z,3.1
2022-09-06T15:37:32.773Z,2.4
2022-09-06T15:42:33.763Z,2.6
2022-09-06T15:47:34.604Z,2.6
2022-09-06T15:52:35.524Z,2.7
2022-09-06T15:57:36.439Z,3.1
2022-09-06T16:02:37.729Z,2.7
2022-09-06T16:07:38.163Z,2.3
2022-09-06T16:12:39.303Z,2.5
2022-09-06T16:17:40.042Z,2.5
2022-09-06T16:22:42.135Z,2.2
2022-09-06T16:27:41.682Z,2.0
2022-09-06T16:32:42.948Z,2.1
2022-09-06T16:37:43.544Z,1.7
2022-09-06T16:42:44.699Z,1.5
2022-09-06T16:47:45.532Z,1.4
2022-09-06T16:52:46.131Z,1.1
2022-09-06T16:57:47.241Z,1.5
2022-09-06T17:02:48.615Z,1.2
2022-09-06T17:07:48.838Z,1.5
2022-09-06T17:12:50.060Z,1.3
2022-09-06T17:17:50.658Z,1.6
2022-09-06T17:22:52.373Z,1.3
2022-09-06T17:27:52.379Z,1.6
2022-09-06T17:32:53.268Z,1.6
2022-09-06T17:37:55.360Z,1.5
2022-09-06T17:42:55.051Z,1.6
2022-09-06T17:47:55.850Z,1.8
2022-09-06T17:52:56.650Z,1.9
2022-09-06T17:57:57.588Z,1.8
2022-09-06T18:02:58.657Z,2.5
2022-09-06T18:07:59.233Z,2.8
2022-09-06T18:13:00.185Z,2.2
2022-09-06T18:18:01.307Z,2.0
2022-09-06T18:23:02.328Z,2.2
2022-09-06T18:28:02.726Z,2.2
2022-09-06T18:33:03.860Z,2.4
2022-09-06T18:38:04.373Z,2.5
2022-09-06T18:43:05.344Z,2.5
2022-09-06T18:48:06.224Z,3.2
2022-09-06T18:53:06.915Z,3.2
2022-09-06T18:58:07.802Z,3.4
2022-09-06T19:03:09.188Z,3.1
2022-09-06T19:08:09.466Z,3.0
2022-09-06T19:13:10.381Z,2.8
2022-09-06T19:18:11.390Z,3.3
2022-09-06T19:23:11.884Z,3.3
2022-09-06T19:28:12.888Z,3.6
2022-09-06T19:33:14.033Z,3.0
2022-09-06T19:38:14.580Z,3.1
2022-09-06T19:43:15.755Z,3.2
2022-09-06T19:48:16.313Z,3.2
2022-09-06T19:53:16.941Z,2.9
2022-09-06T19:58:18.127Z,2.9
2022-09-06T20:03:19.071Z,2.9
2022-09-06T20:08:19.668Z,3.2
2022-09-06T20:13:20.693Z,2.8
2022-09-06T20:18:21.348Z,3.0
2022-09-06T20:23:22.114Z,3.0
2022-09-06T20:28:22.940Z,3.6
2022-09-06T20:33:24.005Z,3.2
2022-09-06T20:38:24.950Z,3.1
2022-09-06T20:43:25.593Z,3.6
2022-09-06T20:48:26.336Z,3.7
2022-09-06T20:53:27.156Z,3.0
2022-09-06T20:58:28.104Z,3.3
2022-09-06T21:03:29.225Z,3.7
2022-09-06T21:08:32.834Z,3.0
2022-09-06T21:13:30.517Z,3.5
2022-09-06T21:18:31.360Z,3.8
2022-09-06T21:23:32.033Z,3.8
2022-09-06T21:28:32.939Z,3.7
2022-09-06T21:33:34.105Z,3.5
2022-09-06T21:38:34.751Z,3.5
2022-09-06T21:43:35.415Z,3.5
2022-09-06T21:48:36.229Z,3.8
2022-09-06T21:53:37.042Z,3.5
2022-09-06T21:58:38.024Z,3.7
2022-09-06T22:03:38.826Z,3.8
2022-09-06T22:08:39.711Z,3.8
2022-09-06T22:13:40.469Z,3.7
2022-09-06T22:18:41.242Z,3.1
2022-09-06T22:23:42.335Z,3.4
2022-09-06T22:28:42.736Z,3.3
2022-09-06T22:33:44.280Z,3.2
2022-09-06T22:38:44.867Z,2.2
2022-09-06T22:43:45.264Z,2.6
2022-09-06T22:48:46.201Z,2.1
2022-09-06T22:53:47.001Z,1.7
2022-09-06T22:58:47.821Z,1.6
2022-09-06T23:03:49.378Z,1.1
2022-09-06T23:08:49.522Z,1.4
2022-09-06T23:13:50.366Z,1.4
2022-09-06T23:18:51.251Z,1.7
2022-09-06T23:23:52.928Z,2.0
2022-09-06T23:28:52.817Z,2.8
2022-09-06T23:33:53.709Z,3.4
2022-09-06T23:38:54.474Z,3.9
2022-09-06T23:43:55.329Z,4.0
2022-09-06T23:48:56.232Z,4.7
2022-09-06T23:53:57.088Z,4.0
2022-09-06T23:58:57.992Z,4.2
